sensor_id;sensor_type;location;lat;lon;timestamp;temperature;humidity
37276;DHT22;23166;51.150;21.620;2022-10-29T00:01:15;8.70;99.90
37276;DHT22;23166;51.150;21.620;2022-10-29T00:03:59;8.60;99.90
37276;DHT22;23166;51.150;21.620;2022-10-29T00:06:52;8.70;99.90
37276;DHT22;23166;51.150;21.620;2022-10-29T00:09:42;8.60;99.90
37276;DHT22;23166;51.150;21.620;2022-10-29T00:12:40;8.60;99.90
37276;DHT22;23166;51.150;21.620;2022-10-29T00:15:45;8.60;99.90
37276;DHT22;23166;51.150;21.620;2022-10-29T00:26:46;8.60;99.90
37276;DHT22;23166;51.150;21.620;2022-10-29T00:32:37;8.90;99.90
37276;DHT22;23166;51.150;21.620;2022-10-29T00:35:22;9.00;99.90
37276;DHT22;23166;51.150;21.620;2022-10-29T00:38:06;9.20;99.90
37276;DHT22;23166;51.150;21.620;2022-10-29T00:40:39;9.30;99.90
37276;DHT22;23166;51.150;21.620;2022-10-29T00:43:11;9.40;99.90
37276;DHT22;23166;51.150;21.620;2022-10-29T00:52:01;9.70;99.90
37276;DHT22;23166;51.150;21.620;2022-10-29T00:54:44;9.80;99.90
37276;DHT22;23166;51.150;21.620;2022-10-29T00:57:42;9.90;99.90
37276;DHT22;23166;51.150;21.620;2022-10-29T01:00:35;10.00;99.90
37276;DHT22;23166;51.150;21.620;2022-10-29T01:03:24;10.00;99.90
37276;DHT22;23166;51.150;21.620;2022-10-29T01:06:02;10.10;99.90
37276;DHT22;23166;51.150;21.620;2022-10-29T01:08:47;10.10;99.90
37276;DHT22;23166;51.150;21.620;2022-10-29T01:29:33;10.40;99.90
37276;DHT22;23166;51.150;21.620;2022-10-29T01:35:17;10.40;99.90
37276;DHT22;23166;51.150;21.620;2022-10-29T01:44:35;10.50;99.90
37276;DHT22;23166;51.150;21.620;2022-10-29T01:47:44;10.50;99.90
37276;DHT22;23166;51.150;21.620;2022-10-29T01:53:41;10.50;99.90
37276;DHT22;23166;51.150;21.620;2022-10-29T01:56:25;10.50;99.90
37276;DHT22;23166;51.150;21.620;2022-10-29T01:59:22;10.50;99.90
37276;DHT22;23166;51.150;21.620;2022-10-29T02:05:10;10.50;99.90
37276;DHT22;23166;51.150;21.620;2022-10-29T02:10:46;10.50;99.90
37276;DHT22;23166;51.150;21.620;2022-10-29T02:13:31;10.50;99.90
37276;DHT22;23166;51.150;21.620;2022-10-29T02:16:16;10.60;99.90
37276;DHT22;23166;51.150;21.620;2022-10-29T02:21:57;10.50;99.90
37276;DHT22;23166;51.150;21.620;2022-10-29T02:24:55;10.50;99.90
37276;DHT22;23166;51.150;21.620;2022-10-29T02:27:46;10.50;99.90
37276;DHT22;23166;51.150;21.620;2022-10-29T02:30:45;10.40;99.90
37276;DHT22;23166;51.150;21.620;2022-10-29T02:33:36;10.30;99.90
37276;DHT22;23166;51.150;21.620;2022-10-29T02:36:20;10.20;99.90
37276;DHT22;23166;51.150;21.620;2022-10-29T02:39:09;10.10;99.90
37276;DHT22;23166;51.150;21.620;2022-10-29T02:42:00;10.10;99.90
37276;DHT22;23166;51.150;21.620;2022-10-29T02:44:37;10.00;99.90
37276;DHT22;23166;51.150;21.620;2022-10-29T02:47:43;9.90;99.90
37276;DHT22;23166;51.150;21.620;2022-10-29T02:50:48;9.80;99.90
37276;DHT22;23166;51.150;21.620;2022-10-29T02:53:28;9.70;99.90
37276;DHT22;23166;51.150;21.620;2022-10-29T02:56:06;9.60;99.90
37276;DHT22;23166;51.150;21.620;2022-10-29T02:58:36;9.60;99.90
37276;DHT22;23166;51.150;21.620;2022-10-29T03:04:41;9.40;99.90
37276;DHT22;23166;51.150;21.620;2022-10-29T03:07:25;9.30;99.90
37276;DHT22;23166;51.150;21.620;2022-10-29T03:10:32;9.20;99.90
37276;DHT22;23166;51.150;21.620;2022-10-29T03:13:34;9.10;99.90
37276;DHT22;23166;51.150;21.620;2022-10-29T03:19:50;8.90;99.90
37276;DHT22;23166;51.150;21.620;2022-10-29T03:28:27;8.70;99.90
37276;DHT22;23166;51.150;21.620;2022-10-29T03:31:16;8.70;99.90
37276;DHT22;23166;51.150;21.620;2022-10-29T03:34:04;8.60;99.90
37276;DHT22;23166;51.150;21.620;2022-10-29T03:36:53;8.60;99.90
37276;DHT22;23166;51.150;21.620;2022-10-29T03:39:46;8.50;99.90
37276;DHT22;23166;51.150;21.620;2022-10-29T03:42:40;8.50;99.90
37276;DHT22;23166;51.150;21.620;2022-10-29T03:45:31;8.50;99.90
37276;DHT22;23166;51.150;21.620;2022-10-29T03:51:27;8.50;99.90
37276;DHT22;23166;51.150;21.620;2022-10-29T03:54:17;8.40;99.90
37276;DHT22;23166;51.150;21.620;2022-10-29T03:57:02;8.50;99.90
37276;DHT22;23166;51.150;21.620;2022-10-29T04:00:13;8.50;99.90
37276;DHT22;23166;51.150;21.620;2022-10-29T04:03:12;8.50;99.90
37276;DHT22;23166;51.150;21.620;2022-10-29T04:08:49;8.50;99.90
37276;DHT22;23166;51.150;21.620;2022-10-29T04:14:24;8.60;99.90
37276;DHT22;23166;51.150;21.620;2022-10-29T04:19:51;8.70;99.90
37276;DHT22;23166;51.150;21.620;2022-10-29T04:22:30;8.70;99.90
37276;DHT22;23166;51.150;21.620;2022-10-29T04:25:05;8.80;99.90
37276;DHT22;23166;51.150;21.620;2022-10-29T04:27:39;8.90;99.90
37276;DHT22;23166;51.150;21.620;2022-10-29T04:30:15;8.90;99.90
37276;DHT22;23166;51.150;21.620;2022-10-29T04:33:06;8.90;99.90
37276;DHT22;23166;51.150;21.620;2022-10-29T04:35:36;9.00;99.90
37276;DHT22;23166;51.150;21.620;2022-10-29T04:38:11;9.00;99.90
37276;DHT22;23166;51.150;21.620;2022-10-29T04:40:47;9.10;99.90
37276;DHT22;23166;51.150;21.620;2022-10-29T04:43:33;9.20;99.90
37276;DHT22;23166;51.150;21.620;2022-10-29T04:46:12;9.20;99.90
37276;DHT22;23166;51.150;21.620;2022-10-29T04:48:52;9.20;99.90
37276;DHT22;23166;51.150;21.620;2022-10-29T04:51:31;9.30;99.90
37276;DHT22;23166;51.150;21.620;2022-10-29T04:54:19;9.30;99.90
37276;DHT22;23166;51.150;21.620;2022-10-29T04:56:54;9.30;99.90
37276;DHT22;23166;51.150;21.620;2022-10-29T04:59:47;9.30;99.90
37276;DHT22;23166;51.150;21.620;2022-10-29T05:02:35;9.30;99.90
37276;DHT22;23166;51.150;21.620;2022-10-29T05:05:13;9.30;99.90
37276;DHT22;23166;51.150;21.620;2022-10-29T05:08:01;9.40;99.90
37276;DHT22;23166;51.150;21.620;2022-10-29T05:10:35;9.40;99.90
37276;DHT22;23166;51.150;21.620;2022-10-29T05:13:10;9.40;99.90
37276;DHT22;23166;51.150;21.620;2022-10-29T05:15:55;9.40;99.90
37276;DHT22;23166;51.150;21.620;2022-10-29T05:18:42;9.40;99.90
37276;DHT22;23166;51.150;21.620;2022-10-29T05:21:21;9.40;99.90
37276;DHT22;23166;51.150;21.620;2022-10-29T05:24:06;9.50;99.90
37276;DHT22;23166;51.150;21.620;2022-10-29T05:26:43;9.50;99.90
37276;DHT22;23166;51.150;21.620;2022-10-29T05:29:27;9.50;99.90
37276;DHT22;23166;51.150;21.620;2022-10-29T05:32:03;9.60;99.90
37276;DHT22;23166;51.150;21.620;2022-10-29T05:35:00;9.70;99.90
37276;DHT22;23166;51.150;21.620;2022-10-29T05:37:37;9.80;99.90
37276;DHT22;23166;51.150;21.620;2022-10-29T05:40:14;9.80;99.90
37276;DHT22;23166;51.150;21.620;2022-10-29T05:43:03;9.90;99.90
37276;DHT22;23166;51.150;21.620;2022-10-29T05:45:34;9.90;99.90
37276;DHT22;23166;51.150;21.620;2022-10-29T05:48:27;10.00;99.90
37276;DHT22;23166;51.150;21.620;2022-10-29T05:51:21;10.00;99.90
37276;DHT22;23166;51.150;21.620;2022-10-29T05:54:14;10.10;99.90
37276;DHT22;23166;51.150;21.620;2022-10-29T05:57:07;10.20;99.90
37276;DHT22;23166;51.150;21.620;2022-10-29T06:00:00;10.20;99.90
37276;DHT22;23166;51.150;21.620;2022-10-29T06:12:08;10.50;99.90
37276;DHT22;23166;51.150;21.620;2022-10-29T06:30:56;11.10;99.90
37276;DHT22;23166;51.150;21.620;2022-10-29T06:33:54;11.20;99.90
37276;DHT22;23166;51.150;21.620;2022-10-29T06:43:18;11.60;99.90
37276;DHT22;23166;51.150;21.620;2022-10-29T06:49:10;11.90;99.90
37276;DHT22;23166;51.150;21.620;2022-10-29T06:55:49;12.30;99.90
37276;DHT22;23166;51.150;21.620;2022-10-29T06:58:26;12.60;99.90
37276;DHT22;23166;51.150;21.620;2022-10-29T07:08:15;13.20;99.90
37276;DHT22;23166;51.150;21.620;2022-10-29T07:36:46;13.70;99.90
37276;DHT22;23166;51.150;21.620;2022-10-29T07:43:03;13.90;99.90
37276;DHT22;23166;51.150;21.620;2022-10-29T07:46:01;14.10;99.90
37276;DHT22;23166;51.150;21.620;2022-10-29T07:48:57;14.40;99.90
37276;DHT22;23166;51.150;21.620;2022-10-29T07:55:10;14.80;99.90
37276;DHT22;23166;51.150;21.620;2022-10-29T08:11:08;15.50;99.90
37276;DHT22;23166;51.150;21.620;2022-10-29T08:30:32;15.60;99.90
37276;DHT22;23166;51.150;21.620;2022-10-29T08:33:43;15.70;99.90
37276;DHT22;23166;51.150;21.620;2022-10-29T08:43:55;16.40;99.90
37276;DHT22;23166;51.150;21.620;2022-10-29T08:50:21;16.70;88.10
37276;DHT22;23166;51.150;21.620;2022-10-29T09:03:07;16.60;57.10
37276;DHT22;23166;51.150;21.620;2022-10-29T09:21:54;17.10;53.30
37276;DHT22;23166;51.150;21.620;2022-10-29T09:24:49;17.20;29.00
37276;DHT22;23166;51.150;21.620;2022-10-29T09:31:22;17.30;9.90
37276;DHT22;23166;51.150;21.620;2022-10-29T09:33:28;17.50;23.10
37276;DHT22;23166;51.150;21.620;2022-10-29T09:42:45;17.70;1.00
37276;DHT22;23166;51.150;21.620;2022-10-29T09:45:40;17.80;1.00
37276;DHT22;23166;51.150;21.620;2022-10-29T09:48:36;17.90;1.00
37276;DHT22;23166;51.150;21.620;2022-10-29T09:54:35;17.90;1.00
37276;DHT22;23166;51.150;21.620;2022-10-29T09:57:30;18.10;1.00
37276;DHT22;23166;51.150;21.620;2022-10-29T10:10:20;18.40;1.00
37276;DHT22;23166;51.150;21.620;2022-10-29T10:13:11;18.60;1.00
37276;DHT22;23166;51.150;21.620;2022-10-29T10:15:54;18.80;22.00
37276;DHT22;23166;51.150;21.620;2022-10-29T10:18:44;19.00;1.00
37276;DHT22;23166;51.150;21.620;2022-10-29T10:21:57;19.20;1.00
37276;DHT22;23166;51.150;21.620;2022-10-29T10:24:35;19.30;1.00
37276;DHT22;23166;51.150;21.620;2022-10-29T10:33:26;19.40;1.00
37276;DHT22;23166;51.150;21.620;2022-10-29T10:42:47;19.70;1.00
37276;DHT22;23166;51.150;21.620;2022-10-29T10:45:36;19.80;1.00
37276;DHT22;23166;51.150;21.620;2022-10-29T10:48:12;19.70;99.90
37276;DHT22;23166;51.150;21.620;2022-10-29T10:50:44;19.70;1.00
37276;DHT22;23166;51.150;21.620;2022-10-29T10:55:47;19.60;1.00
37276;DHT22;23166;51.150;21.620;2022-10-29T10:58:28;19.60;1.00
37276;DHT22;23166;51.150;21.620;2022-10-29T11:00:49;19.70;1.00
37276;DHT22;23166;51.150;21.620;2022-10-29T11:03:35;19.80;1.00
37276;DHT22;23166;51.150;21.620;2022-10-29T11:06:03;19.90;1.00
37276;DHT22;23166;51.150;21.620;2022-10-29T11:08:37;20.00;1.00
37276;DHT22;23166;51.150;21.620;2022-10-29T11:11:06;20.20;1.00
37276;DHT22;23166;51.150;21.620;2022-10-29T11:13:33;20.20;99.90
37276;DHT22;23166;51.150;21.620;2022-10-29T11:21:19;20.30;1.00
37276;DHT22;23166;51.150;21.620;2022-10-29T11:26:31;20.30;1.00
37276;DHT22;23166;51.150;21.620;2022-10-29T11:31:46;20.20;1.00
37276;DHT22;23166;51.150;21.620;2022-10-29T11:36:59;20.20;1.00
37276;DHT22;23166;51.150;21.620;2022-10-29T11:39:25;20.10;1.00
37276;DHT22;23166;51.150;21.620;2022-10-29T11:41:58;20.00;1.00
37276;DHT22;23166;51.150;21.620;2022-10-29T11:44:43;20.00;1.00
37276;DHT22;23166;51.150;21.620;2022-10-29T11:50:05;19.90;1.00
37276;DHT22;23166;51.150;21.620;2022-10-29T11:52:37;19.90;1.00
37276;DHT22;23166;51.150;21.620;2022-10-29T12:00:37;19.90;1.00
37276;DHT22;23166;51.150;21.620;2022-10-29T12:06:07;19.90;1.00
37276;DHT22;23166;51.150;21.620;2022-10-29T12:16:30;20.00;1.00
37276;DHT22;23166;51.150;21.620;2022-10-29T12:18:20;20.10;1.00
37276;DHT22;23166;51.150;21.620;2022-10-29T12:26:15;20.30;1.00
37276;DHT22;23166;51.150;21.620;2022-10-29T12:36:50;20.50;1.00
37276;DHT22;23166;51.150;21.620;2022-10-29T12:42:02;20.60;1.00
37276;DHT22;23166;51.150;21.620;2022-10-29T12:47:25;20.80;1.00
37276;DHT22;23166;51.150;21.620;2022-10-29T12:52:45;20.80;1.00
37276;DHT22;23166;51.150;21.620;2022-10-29T12:55:09;20.70;99.90
37276;DHT22;23166;51.150;21.620;2022-10-29T12:57:37;20.70;99.90
37276;DHT22;23166;51.150;21.620;2022-10-29T13:02:48;20.50;1.00
37276;DHT22;23166;51.150;21.620;2022-10-29T13:05:41;20.40;1.00
37276;DHT22;23166;51.150;21.620;2022-10-29T13:08:08;20.30;1.00
37276;DHT22;23166;51.150;21.620;2022-10-29T13:10:46;20.20;1.00
37276;DHT22;23166;51.150;21.620;2022-10-29T13:13:33;20.10;1.00
37276;DHT22;23166;51.150;21.620;2022-10-29T13:20:51;20.00;1.00
37276;DHT22;23166;51.150;21.620;2022-10-29T13:26:07;20.00;2.40
37276;DHT22;23166;51.150;21.620;2022-10-29T13:47:06;19.90;1.00
37276;DHT22;23166;51.150;21.620;2022-10-29T13:49:37;20.00;1.00
37276;DHT22;23166;51.150;21.620;2022-10-29T13:52:05;20.00;1.00
37276;DHT22;23166;51.150;21.620;2022-10-29T14:05:44;19.80;22.40
37276;DHT22;23166;51.150;21.620;2022-10-29T14:08:12;19.80;26.50
37276;DHT22;23166;51.150;21.620;2022-10-29T14:13:19;19.60;1.00
37276;DHT22;23166;51.150;21.620;2022-10-29T14:15:37;19.50;1.00
37276;DHT22;23166;51.150;21.620;2022-10-29T14:21:00;19.30;1.00
37276;DHT22;23166;51.150;21.620;2022-10-29T14:23:53;19.20;51.90
37276;DHT22;23166;51.150;21.620;2022-10-29T14:26:15;19.10;1.20
37276;DHT22;23166;51.150;21.620;2022-10-29T14:32:05;18.90;52.30
37276;DHT22;23166;51.150;21.620;2022-10-29T14:34:31;18.80;36.80
37276;DHT22;23166;51.150;21.620;2022-10-29T14:37:25;18.60;43.90
37276;DHT22;23166;51.150;21.620;2022-10-29T14:39:51;18.50;55.30
37276;DHT22;23166;51.150;21.620;2022-10-29T14:42:36;18.40;65.10
37276;DHT22;23166;51.150;21.620;2022-10-29T14:45:15;18.20;65.70
37276;DHT22;23166;51.150;21.620;2022-10-29T14:47:32;18.00;58.80
37276;DHT22;23166;51.150;21.620;2022-10-29T14:49:59;17.90;71.50
37276;DHT22;23166;51.150;21.620;2022-10-29T14:52:28;17.70;76.80
37276;DHT22;23166;51.150;21.620;2022-10-29T14:55:18;17.60;78.70
37276;DHT22;23166;51.150;21.620;2022-10-29T14:57:46;17.50;77.90
37276;DHT22;23166;51.150;21.620;2022-10-29T15:00:22;17.40;76.00
37276;DHT22;23166;51.150;21.620;2022-10-29T15:02:41;17.20;79.60
37276;DHT22;23166;51.150;21.620;2022-10-29T15:07:36;17.00;86.90
37276;DHT22;23166;51.150;21.620;2022-10-29T15:12:36;16.80;82.80
37276;DHT22;23166;51.150;21.620;2022-10-29T15:15:19;16.70;75.00
37276;DHT22;23166;51.150;21.620;2022-10-29T15:17:34;16.60;83.70
37276;DHT22;23166;51.150;21.620;2022-10-29T15:20:02;16.60;88.80
37276;DHT22;23166;51.150;21.620;2022-10-29T15:22:33;16.50;91.00
37276;DHT22;23166;51.150;21.620;2022-10-29T15:25:00;16.40;91.70
37276;DHT22;23166;51.150;21.620;2022-10-29T15:27:27;16.30;90.50
37276;DHT22;23166;51.150;21.620;2022-10-29T15:29:53;16.20;94.00
37276;DHT22;23166;51.150;21.620;2022-10-29T15:32:38;16.20;94.20
37276;DHT22;23166;51.150;21.620;2022-10-29T15:35:06;16.10;95.10
37276;DHT22;23166;51.150;21.620;2022-10-29T15:37:51;16.00;96.90
37276;DHT22;23166;51.150;21.620;2022-10-29T15:40:18;15.90;96.10
37276;DHT22;23166;51.150;21.620;2022-10-29T15:42:45;15.80;98.00
37276;DHT22;23166;51.150;21.620;2022-10-29T15:47:43;15.70;99.50
37276;DHT22;23166;51.150;21.620;2022-10-29T15:50:11;15.60;99.90
37276;DHT22;23166;51.150;21.620;2022-10-29T15:52:43;15.60;99.90
37276;DHT22;23166;51.150;21.620;2022-10-29T15:55:28;15.50;99.90
37276;DHT22;23166;51.150;21.620;2022-10-29T15:57:58;15.40;99.90
37276;DHT22;23166;51.150;21.620;2022-10-29T16:00:23;15.30;99.90
37276;DHT22;23166;51.150;21.620;2022-10-29T16:02:49;15.30;99.90
37276;DHT22;23166;51.150;21.620;2022-10-29T16:05:16;15.20;99.90
37276;DHT22;23166;51.150;21.620;2022-10-29T16:07:43;15.20;99.90
37276;DHT22;23166;51.150;21.620;2022-10-29T16:10:19;15.10;99.90
37276;DHT22;23166;51.150;21.620;2022-10-29T16:12:47;15.10;99.90
37276;DHT22;23166;51.150;21.620;2022-10-29T16:15:17;15.10;99.90
37276;DHT22;23166;51.150;21.620;2022-10-29T16:17:44;15.00;99.90
37276;DHT22;23166;51.150;21.620;2022-10-29T16:20:14;15.00;99.90
37276;DHT22;23166;51.150;21.620;2022-10-29T16:22:40;15.00;99.90
37276;DHT22;23166;51.150;21.620;2022-10-29T16:25:26;14.90;99.90
37276;DHT22;23166;51.150;21.620;2022-10-29T16:27:52;14.90;99.90
37276;DHT22;23166;51.150;21.620;2022-10-29T16:30:19;14.90;99.90
37276;DHT22;23166;51.150;21.620;2022-10-29T16:32:46;14.90;99.90
37276;DHT22;23166;51.150;21.620;2022-10-29T16:35:19;14.90;99.90
37276;DHT22;23166;51.150;21.620;2022-10-29T16:37:42;14.90;99.90
37276;DHT22;23166;51.150;21.620;2022-10-29T16:40:26;14.90;99.90
37276;DHT22;23166;51.150;21.620;2022-10-29T16:42:54;14.90;99.90
37276;DHT22;23166;51.150;21.620;2022-10-29T16:45:22;14.80;99.90
37276;DHT22;23166;51.150;21.620;2022-10-29T16:47:48;14.80;99.90
37276;DHT22;23166;51.150;21.620;2022-10-29T16:50:17;14.80;99.90
37276;DHT22;23166;51.150;21.620;2022-10-29T16:53:06;14.70;99.90
37276;DHT22;23166;51.150;21.620;2022-10-29T16:55:51;14.70;99.90
37276;DHT22;23166;51.150;21.620;2022-10-29T16:58:18;14.70;99.90
37276;DHT22;23166;51.150;21.620;2022-10-29T17:00:44;14.60;99.90
37276;DHT22;23166;51.150;21.620;2022-10-29T17:03:29;14.60;99.90
37276;DHT22;23166;51.150;21.620;2022-10-29T17:06:00;14.60;99.90
37276;DHT22;23166;51.150;21.620;2022-10-29T17:08:23;14.60;99.90
37276;DHT22;23166;51.150;21.620;2022-10-29T17:10:56;14.60;99.90
37276;DHT22;23166;51.150;21.620;2022-10-29T17:13:19;14.60;99.90
37276;DHT22;23166;51.150;21.620;2022-10-29T17:15:45;14.60;99.90
37276;DHT22;23166;51.150;21.620;2022-10-29T17:18:30;14.60;99.90
37276;DHT22;23166;51.150;21.620;2022-10-29T17:21:15;14.60;99.90
37276;DHT22;23166;51.150;21.620;2022-10-29T17:24:00;14.70;99.90
37276;DHT22;23166;51.150;21.620;2022-10-29T17:26:26;14.60;99.90
37276;DHT22;23166;51.150;21.620;2022-10-29T17:28:52;14.70;99.90
37276;DHT22;23166;51.150;21.620;2022-10-29T17:31:18;14.60;99.90
37276;DHT22;23166;51.150;21.620;2022-10-29T17:33:46;14.60;99.90
37276;DHT22;23166;51.150;21.620;2022-10-29T17:36:13;14.60;99.90
37276;DHT22;23166;51.150;21.620;2022-10-29T17:38:39;14.60;99.90
37276;DHT22;23166;51.150;21.620;2022-10-29T17:41:24;14.50;99.90
37276;DHT22;23166;51.150;21.620;2022-10-29T17:43:51;14.40;99.90
37276;DHT22;23166;51.150;21.620;2022-10-29T17:46:36;14.40;99.90
37276;DHT22;23166;51.150;21.620;2022-10-29T17:49:20;14.30;99.90
37276;DHT22;23166;51.150;21.620;2022-10-29T17:51:48;14.20;99.90
37276;DHT22;23166;51.150;21.620;2022-10-29T17:54:19;14.20;99.90
37276;DHT22;23166;51.150;21.620;2022-10-29T17:56:47;14.20;99.90
37276;DHT22;23166;51.150;21.620;2022-10-29T17:59:15;14.10;99.90
37276;DHT22;23166;51.150;21.620;2022-10-29T18:01:42;14.10;99.90
37276;DHT22;23166;51.150;21.620;2022-10-29T18:04:08;14.10;99.90
37276;DHT22;23166;51.150;21.620;2022-10-29T18:06:34;14.00;99.90
37276;DHT22;23166;51.150;21.620;2022-10-29T18:09:02;14.00;99.90
37276;DHT22;23166;51.150;21.620;2022-10-29T18:11:29;13.90;99.90
37276;DHT22;23166;51.150;21.620;2022-10-29T18:13:55;13.80;99.90
37276;DHT22;23166;51.150;21.620;2022-10-29T18:16:25;13.80;99.90
37276;DHT22;23166;51.150;21.620;2022-10-29T18:18:55;13.70;99.90
37276;DHT22;23166;51.150;21.620;2022-10-29T18:21:40;13.60;99.90
37276;DHT22;23166;51.150;21.620;2022-10-29T18:24:06;13.50;99.90
37276;DHT22;23166;51.150;21.620;2022-10-29T18:26:33;13.50;99.90
37276;DHT22;23166;51.150;21.620;2022-10-29T18:29:00;13.30;99.90
37276;DHT22;23166;51.150;21.620;2022-10-29T18:31:45;13.30;99.90
37276;DHT22;23166;51.150;21.620;2022-10-29T18:34:12;13.30;99.90
37276;DHT22;23166;51.150;21.620;2022-10-29T18:36:39;13.20;99.90
37276;DHT22;23166;51.150;21.620;2022-10-29T18:39:06;13.20;99.90
37276;DHT22;23166;51.150;21.620;2022-10-29T18:41:32;13.10;99.90
37276;DHT22;23166;51.150;21.620;2022-10-29T18:43:59;13.10;99.90
37276;DHT22;23166;51.150;21.620;2022-10-29T18:46:44;13.10;99.90
37276;DHT22;23166;51.150;21.620;2022-10-29T18:49:10;13.10;99.90
37276;DHT22;23166;51.150;21.620;2022-10-29T18:51:56;13.10;99.90
37276;DHT22;23166;51.150;21.620;2022-10-29T18:54:22;13.10;99.90
37276;DHT22;23166;51.150;21.620;2022-10-29T18:57:06;13.10;99.90
37276;DHT22;23166;51.150;21.620;2022-10-29T18:59:32;13.10;99.90
37276;DHT22;23166;51.150;21.620;2022-10-29T19:02:07;13.10;99.90
37276;DHT22;23166;51.150;21.620;2022-10-29T19:04:52;13.20;99.90
37276;DHT22;23166;51.150;21.620;2022-10-29T19:07:18;13.20;99.90
37276;DHT22;23166;51.150;21.620;2022-10-29T19:09:44;13.30;99.90
37276;DHT22;23166;51.150;21.620;2022-10-29T19:12:10;13.30;99.90
37276;DHT22;23166;51.150;21.620;2022-10-29T19:14:37;13.30;99.90
37276;DHT22;23166;51.150;21.620;2022-10-29T19:17:04;13.40;99.90
37276;DHT22;23166;51.150;21.620;2022-10-29T19:19:30;13.40;99.90
37276;DHT22;23166;51.150;21.620;2022-10-29T19:21:56;13.40;99.90
37276;DHT22;23166;51.150;21.620;2022-10-29T19:24:22;13.40;99.90
37276;DHT22;23166;51.150;21.620;2022-10-29T19:26:48;13.50;99.90
37276;DHT22;23166;51.150;21.620;2022-10-29T19:29:33;13.50;99.90
37276;DHT22;23166;51.150;21.620;2022-10-29T19:31:59;13.50;99.90
37276;DHT22;23166;51.150;21.620;2022-10-29T19:34:25;13.60;99.90
37276;DHT22;23166;51.150;21.620;2022-10-29T19:36:51;13.70;99.90
37276;DHT22;23166;51.150;21.620;2022-10-29T19:39:36;13.70;99.90
37276;DHT22;23166;51.150;21.620;2022-10-29T19:42:02;13.70;99.90
37276;DHT22;23166;51.150;21.620;2022-10-29T19:44:28;13.70;99.90
37276;DHT22;23166;51.150;21.620;2022-10-29T19:46:55;13.70;99.90
37276;DHT22;23166;51.150;21.620;2022-10-29T19:49:21;13.70;99.90
37276;DHT22;23166;51.150;21.620;2022-10-29T19:51:47;13.60;99.90
37276;DHT22;23166;51.150;21.620;2022-10-29T19:54:13;13.60;99.90
37276;DHT22;23166;51.150;21.620;2022-10-29T19:56:58;13.60;99.90
37276;DHT22;23166;51.150;21.620;2022-10-29T19:59:24;13.60;99.90
37276;DHT22;23166;51.150;21.620;2022-10-29T20:01:50;13.60;99.90
37276;DHT22;23166;51.150;21.620;2022-10-29T20:04:17;13.60;99.90
37276;DHT22;23166;51.150;21.620;2022-10-29T20:06:43;13.60;99.90
37276;DHT22;23166;51.150;21.620;2022-10-29T20:09:09;13.60;99.90
37276;DHT22;23166;51.150;21.620;2022-10-29T20:11:35;13.70;99.90
37276;DHT22;23166;51.150;21.620;2022-10-29T20:14:01;13.70;99.90
37276;DHT22;23166;51.150;21.620;2022-10-29T20:16:27;13.70;99.90
37276;DHT22;23166;51.150;21.620;2022-10-29T20:19:12;13.80;99.90
37276;DHT22;23166;51.150;21.620;2022-10-29T20:21:38;13.70;99.90
37276;DHT22;23166;51.150;21.620;2022-10-29T20:24:04;13.70;99.90
37276;DHT22;23166;51.150;21.620;2022-10-29T20:26:31;13.70;99.90
37276;DHT22;23166;51.150;21.620;2022-10-29T20:28:57;13.70;99.90
37276;DHT22;23166;51.150;21.620;2022-10-29T20:31:24;13.80;99.90
37276;DHT22;23166;51.150;21.620;2022-10-29T20:33:52;13.80;99.90
37276;DHT22;23166;51.150;21.620;2022-10-29T20:36:19;13.80;99.90
37276;DHT22;23166;51.150;21.620;2022-10-29T20:38:49;13.80;99.90
37276;DHT22;23166;51.150;21.620;2022-10-29T20:41:15;13.80;99.90
37276;DHT22;23166;51.150;21.620;2022-10-29T20:44:00;13.90;99.90
37276;DHT22;23166;51.150;21.620;2022-10-29T20:46:26;13.90;99.90
37276;DHT22;23166;51.150;21.620;2022-10-29T20:48:53;13.90;99.90
37276;DHT22;23166;51.150;21.620;2022-10-29T20:51:19;13.90;99.90
37276;DHT22;23166;51.150;21.620;2022-10-29T20:53:47;13.90;99.90
37276;DHT22;23166;51.150;21.620;2022-10-29T20:56:13;13.90;99.90
37276;DHT22;23166;51.150;21.620;2022-10-29T20:58:39;13.80;99.90
37276;DHT22;23166;51.150;21.620;2022-10-29T21:01:23;13.80;99.90
37276;DHT22;23166;51.150;21.620;2022-10-29T21:03:50;13.80;99.90
37276;DHT22;23166;51.150;21.620;2022-10-29T21:06:34;13.70;99.90
37276;DHT22;23166;51.150;21.620;2022-10-29T21:09:01;13.70;99.90
37276;DHT22;23166;51.150;21.620;2022-10-29T21:11:27;13.70;99.90
37276;DHT22;23166;51.150;21.620;2022-10-29T21:13:53;13.60;99.90
37276;DHT22;23166;51.150;21.620;2022-10-29T21:18:48;13.60;99.90
37276;DHT22;23166;51.150;21.620;2022-10-29T21:21:14;13.60;99.90
37276;DHT22;23166;51.150;21.620;2022-10-29T21:23:40;13.50;99.90
37276;DHT22;23166;51.150;21.620;2022-10-29T21:26:08;13.50;99.90
37276;DHT22;23166;51.150;21.620;2022-10-29T21:28:35;13.40;99.90
37276;DHT22;23166;51.150;21.620;2022-10-29T21:31:01;13.40;99.90
37276;DHT22;23166;51.150;21.620;2022-10-29T21:33:27;13.30;99.90
37276;DHT22;23166;51.150;21.620;2022-10-29T21:35:54;13.20;99.90
37276;DHT22;23166;51.150;21.620;2022-10-29T21:38:39;13.10;99.90
37276;DHT22;23166;51.150;21.620;2022-10-29T21:41:05;13.10;99.90
37276;DHT22;23166;51.150;21.620;2022-10-29T21:43:31;13.00;99.90
37276;DHT22;23166;51.150;21.620;2022-10-29T21:46:16;13.00;99.90
37276;DHT22;23166;51.150;21.620;2022-10-29T21:49:00;13.00;99.90
37276;DHT22;23166;51.150;21.620;2022-10-29T21:51:27;12.90;99.90
37276;DHT22;23166;51.150;21.620;2022-10-29T21:53:53;12.90;99.90
37276;DHT22;23166;51.150;21.620;2022-10-29T21:56:37;12.90;99.90
37276;DHT22;23166;51.150;21.620;2022-10-29T21:59:03;12.90;99.90
37276;DHT22;23166;51.150;21.620;2022-10-29T22:01:30;12.80;99.90
37276;DHT22;23166;51.150;21.620;2022-10-29T22:04:14;12.80;99.90
37276;DHT22;23166;51.150;21.620;2022-10-29T22:06:40;12.80;99.90
37276;DHT22;23166;51.150;21.620;2022-10-29T22:09:06;12.70;99.90
37276;DHT22;23166;51.150;21.620;2022-10-29T22:11:34;12.70;99.90
37276;DHT22;23166;51.150;21.620;2022-10-29T22:14:19;12.60;99.90
37276;DHT22;23166;51.150;21.620;2022-10-29T22:16:45;12.60;99.90
37276;DHT22;23166;51.150;21.620;2022-10-29T22:19:11;12.50;99.90
37276;DHT22;23166;51.150;21.620;2022-10-29T22:21:37;12.50;99.90
37276;DHT22;23166;51.150;21.620;2022-10-29T22:24:03;12.40;99.90
37276;DHT22;23166;51.150;21.620;2022-10-29T22:26:30;12.40;99.90
37276;DHT22;23166;51.150;21.620;2022-10-29T22:28:57;12.40;99.90
37276;DHT22;23166;51.150;21.620;2022-10-29T22:31:42;12.30;99.90
37276;DHT22;23166;51.150;21.620;2022-10-29T22:34:08;12.30;99.90
37276;DHT22;23166;51.150;21.620;2022-10-29T22:36:35;12.30;99.90